createdAt,value
2019-02-17T00:01:28.654Z,98.30
2019-02-17T00:03:59.430Z,98.30
2019-02-17T00:06:30.344Z,98.40
2019-02-17T00:09:01.095Z,98.50
2019-02-17T00:11:33.509Z,98.50
2019-02-17T00:14:04.346Z,98.50
2019-02-17T00:16:35.110Z,98.40
2019-02-17T00:19:05.890Z,98.40
2019-02-17T00:21:36.629Z,98.30
2019-02-17T00:24:07.789Z,98.40
2019-02-17T00:26:38.552Z,98.40
2019-02-17T00:29:09.226Z,98.40
2019-02-17T00:31:40.040Z,98.40
2019-02-17T00:34:13.738Z,98.50
2019-02-17T00:36:44.242Z,98.50
2019-02-17T00:39:15.127Z,98.40
2019-02-17T00:41:47.451Z,98.50
2019-02-17T00:44:18.222Z,98.50
2019-02-17T00:46:49.023Z,98.50
2019-02-17T00:49:19.732Z,98.60
2019-02-17T00:51:51.529Z,98.50
2019-02-17T00:54:23.006Z,98.60
2019-02-17T00:56:53.765Z,98.60
2019-02-17T00:59:24.566Z,98.60
2019-02-17T01:01:55.345Z,98.60
2019-02-17T01:04:26.088Z,98.60
2019-02-17T01:06:56.891Z,98.60
2019-02-17T01:09:27.593Z,98.60
2019-02-17T01:11:58.395Z,98.70
2019-02-17T01:14:29.149Z,98.70
2019-02-17T01:17:01.472Z,98.60
2019-02-17T01:19:32.357Z,98.60
2019-02-17T01:22:03.069Z,98.60
2019-02-17T01:24:33.734Z,98.60
2019-02-17T01:27:04.470Z,98.60
2019-02-17T01:29:35.311Z,98.60
2019-02-17T01:32:06.145Z,98.60
2019-02-17T01:34:36.815Z,98.70
2019-02-17T01:37:07.549Z,98.70
2019-02-17T01:39:38.308Z,98.70
2019-02-17T01:42:09.084Z,98.70
2019-02-17T01:44:39.895Z,98.70
2019-02-17T01:47:10.558Z,98.70
2019-02-17T01:49:41.355Z,98.70
2019-02-17T02:10:51.192Z,98.90
2019-02-17T02:13:22.746Z,99.00
2019-02-17T02:15:53.429Z,98.90
2019-02-17T02:18:25.659Z,98.90
2019-02-17T02:20:56.444Z,98.90
2019-02-17T02:23:27.178Z,98.80
2019-02-17T02:25:57.855Z,98.80
2019-02-17T02:28:28.567Z,98.80
2019-02-17T02:30:59.275Z,98.90
2019-02-17T02:33:30.692Z,98.80
2019-02-17T02:36:01.323Z,98.90
2019-02-17T02:38:31.977Z,98.90
2019-02-17T02:41:02.727Z,98.90
2019-02-17T02:43:33.387Z,98.90
2019-02-17T02:46:04.230Z,98.90
2019-02-17T02:48:34.955Z,98.90
2019-02-17T02:51:05.758Z,98.90
2019-02-17T02:53:38.018Z,98.90
2019-02-17T02:56:08.788Z,98.90
2019-02-17T02:58:39.511Z,98.90
2019-02-17T03:01:11.637Z,98.90
2019-02-17T03:03:42.383Z,98.90
2019-02-17T03:06:35.129Z,98.90
2019-02-17T03:09:07.015Z,98.90
2019-02-17T03:11:37.881Z,99.00
2019-02-17T03:14:08.671Z,98.90
2019-02-17T03:16:39.439Z,99.00
2019-02-17T03:19:10.130Z,98.90
2019-02-17T03:21:40.958Z,99.00
2019-02-17T03:24:11.895Z,99.00
2019-02-17T03:26:42.705Z,98.90
2019-02-17T03:29:13.376Z,98.90
2019-02-17T03:31:44.188Z,99.00
2019-02-17T03:34:15.034Z,99.00
2019-02-17T03:36:45.812Z,99.00
2019-02-17T03:39:16.634Z,99.10
2019-02-17T03:41:47.438Z,99.10
2019-02-17T03:44:18.183Z,99.00
2019-02-17T03:46:48.921Z,99.00
2019-02-17T03:49:19.748Z,99.10
2019-02-17T03:51:50.678Z,99.10
2019-02-17T03:54:21.496Z,99.10
2019-02-17T03:56:52.258Z,99.10
2019-02-17T03:59:22.989Z,99.10
2019-02-17T04:01:53.723Z,99.10
2019-02-17T04:04:24.492Z,99.10
2019-02-17T04:06:55.239Z,99.10
2019-02-17T04:09:26.041Z,99.10
2019-02-17T04:11:56.703Z,99.10
2019-02-17T04:14:27.670Z,99.20
2019-02-17T04:16:58.331Z,99.20
2019-02-17T04:19:29.066Z,99.20
2019-02-17T04:21:59.964Z,99.20
2019-02-17T04:24:30.749Z,99.20
2019-02-17T04:27:01.431Z,99.20
2019-02-17T04:29:32.186Z,99.20
2019-02-17T04:32:02.965Z,99.20
2019-02-17T04:34:33.788Z,99.20
2019-02-17T04:37:04.528Z,99.20
2019-02-17T04:39:35.363Z,99.20
2019-02-17T04:42:06.302Z,99.20
2019-02-17T04:44:37.084Z,99.20
2019-02-17T04:47:07.813Z,99.30
2019-02-17T04:49:38.510Z,99.20
2019-02-17T04:52:09.231Z,99.30
2019-02-17T04:54:39.989Z,99.30
2019-02-17T04:57:10.869Z,99.30
2019-02-17T04:59:41.610Z,99.30
2019-02-17T05:02:12.395Z,99.30
2019-02-17T05:04:43.103Z,99.30
2019-02-17T05:07:13.815Z,99.20
2019-02-17T05:09:45.474Z,99.30
2019-02-17T05:12:16.229Z,99.20
2019-02-17T05:14:47.016Z,99.20
2019-02-17T05:17:17.807Z,99.20
2019-02-17T05:19:48.608Z,99.30
2019-02-17T05:22:19.387Z,99.30
2019-02-17T05:24:50.118Z,99.30
2019-02-17T05:27:20.814Z,99.30
2019-02-17T05:29:51.624Z,99.30
2019-02-17T05:32:22.358Z,99.30
2019-02-17T05:34:53.125Z,99.30
2019-02-17T05:37:24.886Z,99.30
2019-02-17T05:39:55.626Z,99.30
2019-02-17T05:42:26.368Z,99.30
2019-02-17T05:44:57.102Z,99.30
2019-02-17T05:47:27.789Z,99.30
2019-02-17T05:49:58.441Z,99.30
2019-02-17T05:52:29.169Z,99.30
2019-02-17T05:54:59.918Z,99.30
2019-02-17T05:57:30.706Z,99.30
2019-02-17T06:00:01.440Z,99.30
2019-02-17T06:02:32.170Z,99.40
2019-02-17T06:05:02.982Z,99.40
2019-02-17T06:07:33.715Z,99.40
2019-02-17T06:10:04.608Z,99.50
2019-02-17T06:12:35.352Z,99.50
2019-02-17T06:15:06.210Z,99.50
2019-02-17T06:17:36.958Z,99.50
2019-02-17T06:20:08.536Z,99.50
2019-02-17T06:22:39.376Z,99.40
2019-02-17T06:25:10.140Z,99.50
2019-02-17T06:27:41.893Z,99.40
2019-02-17T06:30:12.552Z,99.40
2019-02-17T06:32:43.331Z,99.40
2019-02-17T06:35:14.170Z,99.40
2019-02-17T06:37:44.970Z,99.40
2019-02-17T06:40:15.706Z,99.40
2019-02-17T06:42:46.536Z,99.40
2019-02-17T06:45:19.635Z,99.30
2019-02-17T06:47:49.810Z,99.10
2019-02-17T06:50:22.232Z,99.00
2019-02-17T06:52:53.119Z,99.00
2019-02-17T06:55:40.819Z,98.90
2019-02-17T06:58:11.485Z,99.00
2019-02-17T07:00:53.525Z,99.00
2019-02-17T07:03:24.297Z,98.90
2019-02-17T07:06:13.998Z,98.80
2019-02-17T07:08:44.796Z,98.60
2019-02-17T07:11:15.701Z,98.20
2019-02-17T07:13:46.408Z,98.00
2019-02-17T07:16:18.710Z,98.00
2019-02-17T07:18:49.349Z,97.90
2019-02-17T07:21:20.070Z,97.90
2019-02-17T07:23:50.762Z,97.80
2019-02-17T07:26:21.582Z,97.70
2019-02-17T07:28:52.232Z,97.50
2019-02-17T07:31:22.941Z,97.30
2019-02-17T07:33:53.594Z,97.10
2019-02-17T07:36:24.218Z,97.00
2019-02-17T07:38:54.902Z,96.80
2019-02-17T07:41:27.158Z,96.50
2019-02-17T07:43:57.850Z,96.50
2019-02-17T07:46:28.554Z,96.20
2019-02-17T07:48:59.241Z,96.20
2019-02-17T07:51:29.996Z,96.20
2019-02-17T07:54:00.691Z,96.10
2019-02-17T07:56:31.511Z,96.00
2019-02-17T07:59:02.207Z,95.90
2019-02-17T08:01:32.939Z,95.70
2019-02-17T08:04:03.878Z,95.40
2019-02-17T08:06:34.610Z,95.30
2019-02-17T08:09:06.002Z,95.10
2019-02-17T08:11:41.046Z,95.00
2019-02-17T08:14:11.969Z,94.50
2019-02-17T08:16:42.812Z,94.50
2019-02-17T08:19:13.556Z,94.30
2019-02-17T08:21:44.380Z,94.10
2019-02-17T08:24:15.701Z,93.80
2019-02-17T08:26:46.574Z,93.90
2019-02-17T08:29:17.283Z,93.20
2019-02-17T08:31:55.194Z,93.60
2019-02-17T08:34:20.610Z,93.50
2019-02-17T08:36:51.289Z,93.30
2019-02-17T08:39:22.063Z,93.00
2019-02-17T08:41:52.802Z,92.80
2019-02-17T08:44:23.494Z,92.80
2019-02-17T08:46:54.227Z,92.40
2019-02-17T08:49:24.943Z,92.70
2019-02-17T08:51:55.653Z,92.80
2019-02-17T08:54:26.793Z,92.40
2019-02-17T08:56:57.529Z,92.30
2019-02-17T08:59:28.219Z,91.80
2019-02-17T09:02:05.712Z,91.70
2019-02-17T09:04:31.539Z,90.70
2019-02-17T09:07:02.349Z,90.50
2019-02-17T09:09:33.230Z,90.90
2019-02-17T09:12:03.966Z,90.50
2019-02-17T09:14:34.914Z,90.10
2019-02-17T09:17:07.170Z,90.00
2019-02-17T09:19:37.926Z,89.10
2019-02-17T09:22:08.837Z,89.90
2019-02-17T09:24:39.859Z,89.20
2019-02-17T09:27:10.647Z,88.40
2019-02-17T09:29:41.507Z,89.30
2019-02-17T09:32:16.364Z,88.40
2019-02-17T09:34:44.779Z,89.10
2019-02-17T09:37:17.317Z,87.70
2019-02-17T09:39:48.088Z,87.20
2019-02-17T09:42:19.923Z,87.00
2019-02-17T09:44:50.739Z,87.20
2019-02-17T09:47:21.799Z,87.00
2019-02-17T09:49:52.553Z,86.40
2019-02-17T09:52:23.360Z,85.10
2019-02-17T09:54:54.511Z,85.70
2019-02-17T09:57:25.364Z,84.60
2019-02-17T09:59:56.235Z,84.10
2019-02-17T10:02:27.016Z,83.80
2019-02-17T10:04:57.817Z,84.30
2019-02-17T10:07:28.635Z,82.50
2019-02-17T10:09:59.451Z,82.90
2019-02-17T10:12:31.602Z,81.90
2019-02-17T10:15:02.485Z,81.70
2019-02-17T10:17:33.393Z,80.80
2019-02-17T10:20:05.262Z,79.90
2019-02-17T10:22:36.197Z,79.40
2019-02-17T10:25:07.150Z,76.50
2019-02-17T10:27:38.822Z,75.90
2019-02-17T10:30:11.360Z,76.10
2019-02-17T10:32:42.155Z,75.60
2019-02-17T10:35:13.207Z,76.00
2019-02-17T10:37:44.002Z,75.60
2019-02-17T10:40:15.608Z,73.80
2019-02-17T10:42:46.470Z,75.00
2019-02-17T10:45:17.239Z,75.40
2019-02-17T10:47:49.623Z,74.90
2019-02-17T10:50:20.419Z,75.50
2019-02-17T10:52:51.188Z,73.60
2019-02-17T10:55:24.975Z,74.20
2019-02-17T10:57:55.963Z,71.90
2019-02-17T11:00:27.497Z,72.70
2019-02-17T11:03:04.914Z,70.10
2019-02-17T11:05:35.682Z,71.30
2019-02-17T11:08:06.477Z,69.40
2019-02-17T11:10:38.226Z,68.10
2019-02-17T11:13:09.296Z,68.40
2019-02-17T11:15:40.207Z,69.30
2019-02-17T11:18:12.707Z,69.40
2019-02-17T11:20:45.242Z,69.20
2019-02-17T11:23:16.351Z,67.30
2019-02-17T11:25:47.203Z,66.90
2019-02-17T11:28:18.037Z,67.40
2019-02-17T11:30:48.973Z,67.70
2019-02-17T11:33:20.071Z,67.20
2019-02-17T11:35:51.007Z,66.00
2019-02-17T11:38:22.715Z,65.30
2019-02-17T11:40:53.535Z,63.70
2019-02-17T11:43:24.642Z,64.10
2019-02-17T11:45:59.624Z,62.00
2019-02-17T11:48:31.936Z,62.10
2019-02-17T11:51:02.725Z,60.50
2019-02-17T11:53:33.511Z,60.00
2019-02-17T11:56:04.345Z,58.30
2019-02-17T11:58:35.120Z,57.60
2019-02-17T12:01:07.420Z,55.50
2019-02-17T12:03:38.266Z,54.60
2019-02-17T12:06:09.136Z,54.70
2019-02-17T12:08:45.535Z,54.00
2019-02-17T12:11:16.532Z,53.70
2019-02-17T12:13:47.320Z,53.30
2019-02-17T12:16:18.439Z,52.80
2019-02-17T12:18:50.694Z,52.40
2019-02-17T12:21:29.426Z,51.80
2019-02-17T12:24:18.814Z,50.00
2019-02-17T12:27:17.642Z,49.50
2019-02-17T12:29:51.821Z,49.00
2019-02-17T12:32:28.036Z,47.60
2019-02-17T12:34:58.789Z,48.30
2019-02-17T12:37:29.466Z,46.40
2019-02-17T12:40:00.294Z,46.00
2019-02-17T12:42:31.060Z,44.20
2019-02-17T12:45:01.851Z,45.70
2019-02-17T12:47:33.660Z,46.80
2019-02-17T12:50:05.098Z,46.30
2019-02-17T12:52:35.858Z,45.70
2019-02-17T12:55:06.790Z,47.10
2019-02-17T12:57:37.607Z,44.20
2019-02-17T13:00:11.756Z,42.10
2019-02-17T13:02:42.511Z,41.80
2019-02-17T13:05:13.300Z,41.30
2019-02-17T13:07:44.202Z,42.00
2019-02-17T13:10:14.972Z,41.90
2019-02-17T13:12:46.371Z,41.80
2019-02-17T13:15:17.213Z,43.00
2019-02-17T13:17:48.145Z,42.00
2019-02-17T13:20:19.155Z,41.40
2019-02-17T13:22:51.728Z,40.80
2019-02-17T13:25:22.931Z,40.30
2019-02-17T13:27:53.726Z,39.50
2019-02-17T13:30:24.524Z,37.80
2019-02-17T13:32:56.994Z,38.50
2019-02-17T13:35:27.802Z,39.80
2019-02-17T13:37:58.634Z,41.30
2019-02-17T13:40:29.523Z,41.50
2019-02-17T13:43:00.378Z,41.00
2019-02-17T13:45:31.187Z,41.10
2019-02-17T13:48:01.892Z,41.20
2019-02-17T13:50:32.766Z,41.30
2019-02-17T13:53:11.402Z,39.00
2019-02-17T13:55:36.089Z,37.50
2019-02-17T13:58:06.893Z,38.60
2019-02-17T14:00:37.691Z,38.30
2019-02-17T14:03:10.202Z,37.60
2019-02-17T14:05:42.519Z,37.80
2019-02-17T14:08:13.271Z,38.00
2019-02-17T14:10:44.104Z,39.20
2019-02-17T14:13:15.164Z,41.00
2019-02-17T14:15:46.390Z,40.70
2019-02-17T14:18:17.800Z,40.10
2019-02-17T14:20:48.639Z,39.10
2019-02-17T14:23:19.423Z,39.50
2019-02-17T14:25:50.279Z,39.80
2019-02-17T14:28:21.090Z,42.20
2019-02-17T14:30:52.898Z,42.60
2019-02-17T14:33:23.719Z,43.90
2019-02-17T14:35:54.542Z,44.70
2019-02-17T14:38:25.290Z,44.90
2019-02-17T14:40:55.989Z,45.10
2019-02-17T14:43:26.802Z,44.00
2019-02-17T14:45:57.567Z,45.50
2019-02-17T14:48:28.321Z,45.40
2019-02-17T14:50:59.074Z,45.80
2019-02-17T14:53:29.822Z,46.60
2019-02-17T14:56:00.697Z,46.70
2019-02-17T14:58:31.457Z,45.80
2019-02-17T15:01:02.626Z,45.60
2019-02-17T15:03:34.744Z,46.40
2019-02-17T15:06:06.210Z,48.30
2019-02-17T15:08:37.850Z,49.40
2019-02-17T15:11:08.932Z,50.00
2019-02-17T15:13:40.399Z,51.20
2019-02-17T15:16:12.103Z,51.50
2019-02-17T15:18:50.943Z,50.70
2019-02-17T15:21:22.260Z,49.10
2019-02-17T15:23:53.203Z,48.10
2019-02-17T15:26:23.973Z,47.20
2019-02-17T15:28:56.206Z,47.90
2019-02-17T15:31:27.840Z,47.80
2019-02-17T15:33:58.645Z,46.80
2019-02-17T15:36:31.002Z,44.60
2019-02-17T15:39:02.540Z,43.90
2019-02-17T15:41:34.378Z,43.80
2019-02-17T15:44:05.133Z,44.40
2019-02-17T15:46:36.073Z,43.40
2019-02-17T15:49:07.553Z,44.30
2019-02-17T15:51:40.236Z,44.20
2019-02-17T15:54:12.946Z,45.40
2019-02-17T15:56:44.315Z,45.50
2019-02-17T15:59:15.334Z,46.50
2019-02-17T16:01:46.032Z,48.40
2019-02-17T16:04:17.583Z,50.00
2019-02-17T16:06:51.043Z,51.00
2019-02-17T16:09:22.293Z,52.10
2019-02-17T16:11:53.634Z,53.40
2019-02-17T16:14:24.952Z,54.90
2019-02-17T16:16:56.607Z,55.80
2019-02-17T16:23:21.471Z,57.00
2019-02-17T16:25:52.837Z,57.80
2019-02-17T16:28:24.480Z,58.10
2019-02-17T16:30:55.220Z,58.10
2019-02-17T16:33:25.949Z,58.80
2019-02-17T16:35:56.708Z,58.80
2019-02-17T16:38:27.428Z,58.70
2019-02-17T16:40:58.363Z,59.00
2019-02-17T16:43:29.117Z,59.50
2019-02-17T16:45:59.851Z,59.70
2019-02-17T16:48:30.596Z,60.20
2019-02-17T16:51:01.449Z,60.80
2019-02-17T16:53:32.205Z,60.70
2019-02-17T16:56:03.058Z,61.10
2019-02-17T16:58:33.808Z,61.30
2019-02-17T17:01:05.989Z,61.90
2019-02-17T17:03:36.831Z,62.40
2019-02-17T17:06:07.664Z,62.90
2019-02-17T17:08:38.402Z,63.30
2019-02-17T17:11:09.227Z,63.80
2019-02-17T17:13:39.918Z,64.10
2019-02-17T17:16:10.747Z,64.10
2019-02-17T17:18:41.416Z,64.20
2019-02-17T17:21:12.191Z,64.60
2019-02-17T17:23:43.183Z,65.40
2019-02-17T17:26:14.808Z,66.80
2019-02-17T17:28:45.438Z,67.20
2019-02-17T17:31:16.449Z,67.30
2019-02-17T17:33:47.270Z,67.40
2019-02-17T17:36:18.033Z,68.00
2019-02-17T17:38:48.771Z,68.20
2019-02-17T17:41:19.429Z,68.60
2019-02-17T17:43:50.507Z,69.40
2019-02-17T17:46:21.326Z,70.30
2019-02-17T17:48:52.147Z,70.40
2019-02-17T17:51:22.881Z,70.60
2019-02-17T17:53:53.509Z,71.20
2019-02-17T17:56:24.250Z,71.30
2019-02-17T17:58:55.183Z,71.40
2019-02-17T18:01:25.929Z,71.60
2019-02-17T18:03:56.677Z,72.90
2019-02-17T18:06:27.402Z,73.20
2019-02-17T18:08:58.162Z,73.50
2019-02-17T18:11:28.942Z,73.50
2019-02-17T18:13:59.747Z,74.00
2019-02-17T18:16:30.542Z,74.30
2019-02-17T18:19:01.208Z,74.60
2019-02-17T18:21:31.913Z,74.60
2019-02-17T18:24:02.722Z,74.40
2019-02-17T18:26:33.492Z,74.40
2019-02-17T18:29:04.291Z,73.80
2019-02-17T18:31:35.353Z,73.10
2019-02-17T18:34:06.286Z,72.60
2019-02-17T18:36:37.499Z,72.00
2019-02-17T18:39:09.386Z,71.60
2019-02-17T18:41:40.278Z,71.50
2019-02-17T18:44:11.077Z,71.10
2019-02-17T18:46:41.883Z,70.90
2019-02-17T18:49:13.042Z,70.70
2019-02-17T18:51:43.826Z,69.90
2019-02-17T18:54:14.684Z,69.40
2019-02-17T18:56:46.714Z,69.70
2019-02-17T18:59:17.567Z,69.60
2019-02-17T19:01:48.601Z,69.40
2019-02-17T19:04:19.383Z,69.60
2019-02-17T19:06:50.399Z,69.40
2019-02-17T19:09:21.204Z,69.90
2019-02-17T19:11:52.167Z,70.30
2019-02-17T19:14:23.981Z,70.20
2019-02-17T19:16:54.809Z,70.40
2019-02-17T19:19:25.685Z,71.30
2019-02-17T19:21:56.570Z,70.80
2019-02-17T19:24:27.368Z,71.60
2019-02-17T19:26:58.199Z,72.20
2019-02-17T19:29:29.012Z,72.30
2019-02-17T19:31:59.850Z,73.70
2019-02-17T19:34:30.672Z,73.50
2019-02-17T19:37:01.429Z,73.10
2019-02-17T19:39:32.386Z,72.80
2019-02-17T19:42:03.170Z,72.30
2019-02-17T19:44:34.057Z,72.10
2019-02-17T19:47:04.845Z,72.10
2019-02-17T19:49:35.619Z,71.70
2019-02-17T19:52:06.626Z,71.30
2019-02-17T19:54:38.915Z,71.40
2019-02-17T19:57:11.198Z,71.40
2019-02-17T19:59:42.082Z,71.70
2019-02-17T20:02:13.003Z,72.30
2019-02-17T20:04:46.821Z,72.60
2019-02-17T20:07:17.558Z,73.60
2019-02-17T20:09:48.351Z,73.70
2019-02-17T20:12:19.221Z,74.20
2019-02-17T20:14:50.066Z,74.40
2019-02-17T20:17:20.830Z,74.80
2019-02-17T20:19:51.611Z,76.20
2019-02-17T20:22:22.558Z,76.70
2019-02-17T20:24:53.344Z,77.50
2019-02-17T20:27:24.229Z,77.90
2019-02-17T20:29:54.957Z,78.10
2019-02-17T20:32:27.301Z,78.00
2019-02-17T20:34:58.112Z,77.90
2019-02-17T20:37:29.021Z,78.90
2019-02-17T20:40:01.007Z,80.00
2019-02-17T20:42:33.115Z,80.40
2019-02-17T20:45:03.998Z,80.90
2019-02-17T20:47:34.777Z,80.10
2019-02-17T20:50:37.918Z,79.40
2019-02-17T20:53:14.399Z,78.90
2019-02-17T20:55:45.284Z,79.00
2019-02-17T20:58:17.024Z,79.30
2019-02-17T21:00:47.744Z,80.00
2019-02-17T21:03:19.298Z,79.60
2019-02-17T21:05:50.117Z,78.90
2019-02-17T21:08:21.025Z,78.10
2019-02-17T21:10:52.023Z,77.60
2019-02-17T21:13:23.766Z,77.00
2019-02-17T21:15:54.770Z,76.30
2019-02-17T21:18:26.932Z,76.10
2019-02-17T21:20:57.938Z,75.90
2019-02-17T21:23:29.272Z,76.40
2019-02-17T21:26:00.098Z,76.00
2019-02-17T21:28:30.921Z,75.80
2019-02-17T21:31:01.838Z,75.50
2019-02-17T21:33:32.744Z,75.00
2019-02-17T21:36:03.518Z,74.60
2019-02-17T21:38:34.278Z,74.10
2019-02-17T21:41:09.448Z,73.70
2019-02-17T21:43:37.459Z,73.70
2019-02-17T21:46:08.235Z,73.60
2019-02-17T21:48:39.067Z,73.40
2019-02-17T21:51:09.802Z,73.30
2019-02-17T21:53:40.670Z,72.90
2019-02-17T21:56:11.529Z,72.90
2019-02-17T21:58:42.387Z,72.80
2019-02-17T22:01:13.823Z,73.00
2019-02-17T22:03:44.626Z,73.30
2019-02-17T22:06:15.382Z,73.30
2019-02-17T22:08:46.139Z,73.20
2019-02-17T22:11:17.306Z,73.10
2019-02-17T22:13:48.098Z,73.40
2019-02-17T22:16:20.286Z,73.20
2019-02-17T22:18:51.102Z,73.20
2019-02-17T22:21:21.877Z,73.70
2019-02-17T22:23:52.718Z,74.10
2019-02-17T22:26:24.606Z,74.20
2019-02-17T22:28:55.836Z,74.30
2019-02-17T22:31:26.866Z,74.20
2019-02-17T22:33:57.598Z,74.50
2019-02-17T22:36:30.494Z,74.80
2019-02-17T22:39:02.213Z,75.00
2019-02-17T22:41:32.949Z,75.20
2019-02-17T22:44:03.788Z,75.40
2019-02-17T22:46:34.599Z,75.30
2019-02-17T22:49:05.358Z,75.30
2019-02-17T22:51:37.162Z,75.30
2019-02-17T22:54:07.897Z,75.30
2019-02-17T22:56:38.759Z,75.60
2019-02-17T22:59:09.613Z,75.60
2019-02-17T23:01:40.382Z,75.70
2019-02-17T23:04:11.566Z,76.20
2019-02-17T23:06:42.328Z,76.60
2019-02-17T23:09:14.615Z,79.30
2019-02-17T23:11:45.594Z,79.90
2019-02-17T23:14:16.411Z,79.50
2019-02-17T23:16:47.190Z,79.50
2019-02-17T23:19:17.943Z,80.10
2019-02-17T23:21:48.948Z,81.30
2019-02-17T23:24:20.097Z,81.50
2019-02-17T23:26:50.984Z,82.90
2019-02-17T23:29:23.265Z,83.80
2019-02-17T23:31:54.062Z,83.80
2019-02-17T23:34:25.264Z,85.10
2019-02-17T23:37:03.829Z,86.00
2019-02-17T23:39:28.866Z,87.00
2019-02-17T23:41:59.733Z,86.70
2019-02-17T23:44:30.617Z,86.40
2019-02-17T23:47:01.950Z,87.30
2019-02-17T23:49:32.845Z,87.60
2019-02-17T23:52:04.282Z,88.40
2019-02-17T23:54:35.063Z,89.30
2019-02-17T23:57:06.231Z,89.30
2019-02-17T23:59:37.080Z,89.50
